sensor_id;sensor_type;location;lat;lon;timestamp;pressure;altitude;pressure_sealevel;temperature;humidity
71915;BME280;60387;49.994;14.660;2024-03-08T00:01:11;98109.75;;;6.05;51.48
71915;BME280;60387;49.994;14.660;2024-03-08T00:03:44;98110.84;;;6.09;51.20
71915;BME280;60387;49.994;14.660;2024-03-08T00:06:17;98117.63;;;6.16;51.55
71915;BME280;60387;49.994;14.660;2024-03-08T00:08:50;98114.09;;;6.16;51.65
71915;BME280;60387;49.994;14.660;2024-03-08T00:11:24;98119.47;;;6.16;51.51
71915;BME280;60387;49.994;14.660;2024-03-08T00:13:57;98108.72;;;6.16;51.52
71915;BME280;60387;49.994;14.660;2024-03-08T00:16:30;98115.72;;;6.17;51.24
71915;BME280;60387;49.994;14.660;2024-03-08T00:19:04;98107.66;;;6.17;51.79
71915;BME280;60387;49.994;14.660;2024-03-08T00:21:37;98112.47;;;6.15;51.60
71915;BME280;60387;49.994;14.660;2024-03-08T00:24:10;98105.50;;;6.14;51.59
71915;BME280;60387;49.994;14.660;2024-03-08T00:26:44;98102.81;;;6.14;51.98
71915;BME280;60387;49.994;14.660;2024-03-08T00:29:17;98107.09;;;6.15;51.77
71915;BME280;60387;49.994;14.660;2024-03-08T00:31:50;98106.31;;;6.14;51.68
71915;BME280;60387;49.994;14.660;2024-03-08T00:34:23;98104.69;;;6.18;51.26
71915;BME280;60387;49.994;14.660;2024-03-08T00:36:57;98104.94;;;6.17;52.00
71915;BME280;60387;49.994;14.660;2024-03-08T00:39:30;98104.94;;;6.17;51.66
71915;BME280;60387;49.994;14.660;2024-03-08T00:42:04;98102.28;;;6.22;51.44
71915;BME280;60387;49.994;14.660;2024-03-08T00:44:37;98103.13;;;6.22;51.81
71915;BME280;60387;49.994;14.660;2024-03-08T00:47:10;98109.56;;;6.26;52.24
71915;BME280;60387;49.994;14.660;2024-03-08T00:49:44;98101.75;;;6.24;52.22
71915;BME280;60387;49.994;14.660;2024-03-08T00:52:17;98092.63;;;6.25;52.61
71915;BME280;60387;49.994;14.660;2024-03-08T00:54:50;98084.53;;;6.25;52.49
71915;BME280;60387;49.994;14.660;2024-03-08T00:57:24;98091.56;;;6.27;53.00
71915;BME280;60387;49.994;14.660;2024-03-08T00:59:57;98085.09;;;6.28;52.77
71915;BME280;60387;49.994;14.660;2024-03-08T01:02:30;98084.28;;;6.27;52.50
71915;BME280;60387;49.994;14.660;2024-03-08T01:05:04;98080.25;;;6.34;52.83
71915;BME280;60387;49.994;14.660;2024-03-08T01:07:37;98081.63;;;6.32;52.78
71915;BME280;60387;49.994;14.660;2024-03-08T01:10:10;98074.38;;;6.37;52.99
71915;BME280;60387;49.994;14.660;2024-03-08T01:12:44;98074.88;;;6.34;53.41
71915;BME280;60387;49.994;14.660;2024-03-08T01:15:17;98083.53;;;6.36;53.11
71915;BME280;60387;49.994;14.660;2024-03-08T01:17:50;98075.97;;;6.38;53.24
71915;BME280;60387;49.994;14.660;2024-03-08T01:20:23;98071.44;;;6.39;52.83
71915;BME280;60387;49.994;14.660;2024-03-08T01:22:57;98073.56;;;6.42;53.35
71915;BME280;60387;49.994;14.660;2024-03-08T01:25:30;98073.03;;;6.45;53.46
71915;BME280;60387;49.994;14.660;2024-03-08T01:28:03;98068.19;;;6.47;53.15
71915;BME280;60387;49.994;14.660;2024-03-08T01:30:37;98077.34;;;6.46;52.92
71915;BME280;60387;49.994;14.660;2024-03-08T01:33:10;98072.78;;;6.46;53.37
71915;BME280;60387;49.994;14.660;2024-03-08T01:35:43;98066.84;;;6.49;52.77
71915;BME280;60387;49.994;14.660;2024-03-08T01:38:16;98073.84;;;6.50;52.87
71915;BME280;60387;49.994;14.660;2024-03-08T01:40:51;98062.56;;;6.53;52.63
71915;BME280;60387;49.994;14.660;2024-03-08T01:43:26;98060.66;;;6.54;52.90
71915;BME280;60387;49.994;14.660;2024-03-08T01:46:00;98052.34;;;6.55;52.92
71915;BME280;60387;49.994;14.660;2024-03-08T01:48:34;98062.56;;;6.58;52.94
71915;BME280;60387;49.994;14.660;2024-03-08T01:51:08;98058.25;;;6.57;52.46
71915;BME280;60387;49.994;14.660;2024-03-08T01:53:43;98059.88;;;6.63;52.71
71915;BME280;60387;49.994;14.660;2024-03-08T01:56:19;98054.78;;;6.67;52.19
71915;BME280;60387;49.994;14.660;2024-03-08T01:58:52;98056.66;;;6.66;52.42
71915;BME280;60387;49.994;14.660;2024-03-08T02:01:26;98042.41;;;6.66;52.24
71915;BME280;60387;49.994;14.660;2024-03-08T02:04:00;98050.19;;;6.72;52.31
71915;BME280;60387;49.994;14.660;2024-03-08T02:06:34;98046.44;;;6.73;52.57
71915;BME280;60387;49.994;14.660;2024-03-08T02:09:07;98046.41;;;6.68;52.72
71915;BME280;60387;49.994;14.660;2024-03-08T02:11:41;98047.78;;;6.66;52.49
71915;BME280;60387;49.994;14.660;2024-03-08T02:14:14;98046.69;;;6.67;52.31
71915;BME280;60387;49.994;14.660;2024-03-08T02:16:47;98053.97;;;6.71;52.17
71915;BME280;60387;49.994;14.660;2024-03-08T02:19:21;98040.50;;;6.76;51.81
71915;BME280;60387;49.994;14.660;2024-03-08T02:21:55;98039.97;;;6.79;52.11
71915;BME280;60387;49.994;14.660;2024-03-08T02:24:28;98038.63;;;6.82;51.79
71915;BME280;60387;49.994;14.660;2024-03-08T02:27:02;98032.16;;;6.78;51.91
71915;BME280;60387;49.994;14.660;2024-03-08T02:29:36;98031.09;;;6.84;51.76
71915;BME280;60387;49.994;14.660;2024-03-08T02:32:09;98032.97;;;6.83;51.49
71915;BME280;60387;49.994;14.660;2024-03-08T02:34:43;98027.31;;;6.90;51.45
71915;BME280;60387;49.994;14.660;2024-03-08T02:37:17;98034.31;;;6.91;51.56
71915;BME280;60387;49.994;14.660;2024-03-08T02:39:50;98027.84;;;6.92;51.29
71915;BME280;60387;49.994;14.660;2024-03-08T02:42:23;98027.03;;;6.91;51.30
71915;BME280;60387;49.994;14.660;2024-03-08T02:44:56;98034.84;;;6.93;51.25
71915;BME280;60387;49.994;14.660;2024-03-08T02:47:30;98033.53;;;6.95;51.05
71915;BME280;60387;49.994;14.660;2024-03-08T02:50:03;98022.19;;;6.93;51.03
71915;BME280;60387;49.994;14.660;2024-03-08T02:52:37;98024.06;;;6.98;50.99
71915;BME280;60387;49.994;14.660;2024-03-08T02:55:10;98028.91;;;6.96;51.00
71915;BME280;60387;49.994;14.660;2024-03-08T02:57:44;98024.88;;;6.98;51.22
71915;BME280;60387;49.994;14.660;2024-03-08T03:00:17;98019.25;;;7.00;50.99
71915;BME280;60387;49.994;14.660;2024-03-08T03:02:51;98015.47;;;7.01;50.83
71915;BME280;60387;49.994;14.660;2024-03-08T03:05:24;98021.66;;;7.06;51.17
71915;BME280;60387;49.994;14.660;2024-03-08T03:07:58;98025.13;;;7.07;51.11
71915;BME280;60387;49.994;14.660;2024-03-08T03:10:31;98023.81;;;7.04;50.77
71915;BME280;60387;49.994;14.660;2024-03-08T03:13:04;98007.91;;;7.03;50.95
71915;BME280;60387;49.994;14.660;2024-03-08T03:15:37;98008.44;;;7.05;50.93
71915;BME280;60387;49.994;14.660;2024-03-08T03:18:11;98001.72;;;7.02;51.05
71915;BME280;60387;49.994;14.660;2024-03-08T03:20:44;97999.56;;;7.04;51.13
71915;BME280;60387;49.994;14.660;2024-03-08T03:23:17;98001.72;;;7.02;51.00
71915;BME280;60387;49.994;14.660;2024-03-08T03:25:50;98008.19;;;7.01;50.96
71915;BME280;60387;49.994;14.660;2024-03-08T03:28:24;98002.25;;;6.99;50.83
71915;BME280;60387;49.994;14.660;2024-03-08T03:30:57;97993.13;;;6.95;51.19
71915;BME280;60387;49.994;14.660;2024-03-08T03:33:30;97996.59;;;6.96;51.12
71915;BME280;60387;49.994;14.660;2024-03-08T03:36:04;98000.13;;;6.96;51.01
71915;BME280;60387;49.994;14.660;2024-03-08T03:38:37;98004.97;;;6.94;50.93
71915;BME280;60387;49.994;14.660;2024-03-08T03:41:10;97988.81;;;6.89;51.03
71915;BME280;60387;49.994;14.660;2024-03-08T03:43:43;98001.72;;;6.92;50.99
71915;BME280;60387;49.994;14.660;2024-03-08T03:46:17;97999.03;;;6.92;51.05
71915;BME280;60387;49.994;14.660;2024-03-08T03:48:50;98003.88;;;6.90;51.41
71915;BME280;60387;49.994;14.660;2024-03-08T03:51:23;97993.66;;;6.82;50.92
71915;BME280;60387;49.994;14.660;2024-03-08T03:53:57;97999.84;;;6.78;51.08
71915;BME280;60387;49.994;14.660;2024-03-08T03:56:30;97988.28;;;6.72;50.81
71915;BME280;60387;49.994;14.660;2024-03-08T03:59:03;97991.25;;;6.71;50.88
71915;BME280;60387;49.994;14.660;2024-03-08T04:01:42;97990.44;;;6.65;51.34
71915;BME280;60387;49.994;14.660;2024-03-08T04:04:15;97979.94;;;6.59;51.59
71915;BME280;60387;49.994;14.660;2024-03-08T04:06:49;97988.28;;;6.57;51.63
71915;BME280;60387;49.994;14.660;2024-03-08T04:09:22;97998.50;;;6.50;51.71
71915;BME280;60387;49.994;14.660;2024-03-08T04:11:55;97995.81;;;6.45;51.76
71915;BME280;60387;49.994;14.660;2024-03-08T04:14:28;97991.50;;;6.39;51.75
71915;BME280;60387;49.994;14.660;2024-03-08T04:17:02;97981.00;;;6.38;51.52
71915;BME280;60387;49.994;14.660;2024-03-08T04:19:35;97991.50;;;6.34;51.87
71915;BME280;60387;49.994;14.660;2024-03-08T04:22:09;97991.50;;;6.34;51.57
71915;BME280;60387;49.994;14.660;2024-03-08T04:24:42;97984.78;;;6.32;51.98
71915;BME280;60387;49.994;14.660;2024-03-08T04:27:15;97988.00;;;6.29;52.76
71915;BME280;60387;49.994;14.660;2024-03-08T04:29:48;97957.31;;;6.15;52.57
71915;BME280;60387;49.994;14.660;2024-03-08T04:32:22;97969.16;;;6.19;52.05
71915;BME280;60387;49.994;14.660;2024-03-08T04:34:55;97984.50;;;6.19;52.26
71915;BME280;60387;49.994;14.660;2024-03-08T04:37:29;97978.03;;;6.15;52.51
71915;BME280;60387;49.994;14.660;2024-03-08T04:40:02;97985.53;;;6.08;52.35
71915;BME280;60387;49.994;14.660;2024-03-08T04:42:37;97984.47;;;6.04;52.29
71915;BME280;60387;49.994;14.660;2024-03-08T04:45:12;97976.91;;;5.96;52.32
71915;BME280;60387;49.994;14.660;2024-03-08T04:47:45;97973.13;;;5.92;51.75
71915;BME280;60387;49.994;14.660;2024-03-08T04:50:18;97972.06;;;5.88;52.11
71915;BME280;60387;49.994;14.660;2024-03-08T04:52:51;97976.88;;;5.86;52.02
71915;BME280;60387;49.994;14.660;2024-03-08T04:55:25;97984.13;;;5.80;52.72
71915;BME280;60387;49.994;14.660;2024-03-08T04:57:58;97971.19;;;5.72;52.11
71915;BME280;60387;49.994;14.660;2024-03-08T05:00:32;97981.09;;;5.67;52.54
71915;BME280;60387;49.994;14.660;2024-03-08T05:03:05;97977.03;;;5.59;52.71
71915;BME280;60387;49.994;14.660;2024-03-08T05:05:38;97983.19;;;5.55;52.11
71915;BME280;60387;49.994;14.660;2024-03-08T05:08:12;97977.25;;;5.48;52.19
71915;BME280;60387;49.994;14.660;2024-03-08T05:10:45;97978.56;;;5.45;52.26
71915;BME280;60387;49.994;14.660;2024-03-08T05:13:18;97976.41;;;5.42;52.51
71915;BME280;60387;49.994;14.660;2024-03-08T05:15:51;97981.50;;;5.34;52.77
71915;BME280;60387;49.994;14.660;2024-03-08T05:18:25;97983.91;;;5.30;52.70
71915;BME280;60387;49.994;14.660;2024-03-08T05:20:58;97983.31;;;5.28;53.15
71915;BME280;60387;49.994;14.660;2024-03-08T05:23:31;97984.38;;;5.22;53.01
71915;BME280;60387;49.994;14.660;2024-03-08T05:26:04;97982.47;;;5.18;53.74
71915;BME280;60387;49.994;14.660;2024-03-08T05:28:38;97986.19;;;5.12;53.46
71915;BME280;60387;49.994;14.660;2024-03-08T05:31:18;97986.97;;;5.07;53.09
71915;BME280;60387;49.994;14.660;2024-03-08T05:33:51;97984.53;;;5.06;53.01
71915;BME280;60387;49.994;14.660;2024-03-08T05:36:25;97990.19;;;5.04;53.24
71915;BME280;60387;49.994;14.660;2024-03-08T05:38:58;97988.28;;;5.00;53.11
71915;BME280;60387;49.994;14.660;2024-03-08T05:41:32;97987.72;;;4.98;52.84
71915;BME280;60387;49.994;14.660;2024-03-08T05:44:05;97983.41;;;4.97;53.18
71915;BME280;60387;49.994;14.660;2024-03-08T05:46:39;97983.16;;;4.98;52.92
71915;BME280;60387;49.994;14.660;2024-03-08T05:49:13;97988.28;;;5.00;52.86
71915;BME280;60387;49.994;14.660;2024-03-08T05:51:46;97970.81;;;4.97;52.97
71915;BME280;60387;49.994;14.660;2024-03-08T05:54:19;97979.69;;;5.03;52.84
71915;BME280;60387;49.994;14.660;2024-03-08T05:56:53;97995.28;;;5.06;53.13
71915;BME280;60387;49.994;14.660;2024-03-08T05:59:26;97981.59;;;5.07;52.68
71915;BME280;60387;49.994;14.660;2024-03-08T06:01:59;97977.34;;;5.11;52.93
71915;BME280;60387;49.994;14.660;2024-03-08T06:04:32;97984.88;;;5.19;52.93
71915;BME280;60387;49.994;14.660;2024-03-08T06:07:06;97987.38;;;5.31;52.87
71915;BME280;60387;49.994;14.660;2024-03-08T06:09:39;97986.91;;;5.44;52.79
71915;BME280;60387;49.994;14.660;2024-03-08T06:12:12;97986.94;;;5.54;53.03
71915;BME280;60387;49.994;14.660;2024-03-08T06:14:45;97982.41;;;5.59;52.86
71915;BME280;60387;49.994;14.660;2024-03-08T06:17:19;97988.59;;;5.65;52.79
71915;BME280;60387;49.994;14.660;2024-03-08T06:19:52;97979.78;;;5.74;52.81
71915;BME280;60387;49.994;14.660;2024-03-08T06:22:25;97986.28;;;5.83;52.75
71915;BME280;60387;49.994;14.660;2024-03-08T06:24:58;97985.22;;;5.94;52.96
71915;BME280;60387;49.994;14.660;2024-03-08T06:27:32;97976.13;;;6.05;52.68
71915;BME280;60387;49.994;14.660;2024-03-08T06:30:06;97975.31;;;6.15;52.76
71915;BME280;60387;49.994;14.660;2024-03-08T06:32:39;97976.94;;;6.25;52.44
71915;BME280;60387;49.994;14.660;2024-03-08T06:35:13;97979.13;;;6.38;52.60
71915;BME280;60387;49.994;14.660;2024-03-08T06:37:46;97978.59;;;6.51;52.24
71915;BME280;60387;49.994;14.660;2024-03-08T06:40:19;97980.75;;;6.69;52.36
71915;BME280;60387;49.994;14.660;2024-03-08T06:42:52;97981.81;;;6.83;52.00
71915;BME280;60387;49.994;14.660;2024-03-08T06:45:26;97977.50;;;6.92;51.99
71915;BME280;60387;49.994;14.660;2024-03-08T06:47:59;97980.16;;;7.07;52.12
71915;BME280;60387;49.994;14.660;2024-03-08T06:50:32;97980.66;;;7.24;52.12
71915;BME280;60387;49.994;14.660;2024-03-08T06:53:05;97972.81;;;7.38;51.75
71915;BME280;60387;49.994;14.660;2024-03-08T06:55:39;97967.69;;;7.46;51.73
71915;BME280;60387;49.994;14.660;2024-03-08T06:58:13;97984.31;;;7.63;51.24
71915;BME280;60387;49.994;14.660;2024-03-08T07:00:46;97977.81;;;7.74;51.33
71915;BME280;60387;49.994;14.660;2024-03-08T07:03:19;97976.91;;;7.94;51.42
71915;BME280;60387;49.994;14.660;2024-03-08T07:05:53;97976.28;;;8.07;51.03
71915;BME280;60387;49.994;14.660;2024-03-08T07:08:26;97970.81;;;8.27;50.77
71915;BME280;60387;49.994;14.660;2024-03-08T07:10:59;97971.44;;;8.47;49.93
71915;BME280;60387;49.994;14.660;2024-03-08T07:13:32;97971.56;;;8.66;50.33
71915;BME280;60387;49.994;14.660;2024-03-08T07:16:06;97977.09;;;8.84;49.19
71915;BME280;60387;49.994;14.660;2024-03-08T07:18:39;97974.81;;;8.96;48.55
71915;BME280;60387;49.994;14.660;2024-03-08T07:21:12;97959.91;;;9.04;47.84
71915;BME280;60387;49.994;14.660;2024-03-08T07:23:45;97961.94;;;9.12;48.21
71915;BME280;60387;49.994;14.660;2024-03-08T07:26:20;97958.53;;;9.30;48.26
71915;BME280;60387;49.994;14.660;2024-03-08T07:28:53;97961.38;;;9.43;47.64
71915;BME280;60387;49.994;14.660;2024-03-08T07:31:26;97960.88;;;9.59;48.19
71915;BME280;60387;49.994;14.660;2024-03-08T07:34:00;97950.03;;;9.83;47.49
71915;BME280;60387;49.994;14.660;2024-03-08T07:36:34;97948.22;;;9.97;45.86
71915;BME280;60387;49.994;14.660;2024-03-08T07:39:07;97951.13;;;10.05;45.29
71915;BME280;60387;49.994;14.660;2024-03-08T07:41:40;97947.00;;;10.08;44.60
71915;BME280;60387;49.994;14.660;2024-03-08T07:44:14;97951.50;;;10.17;45.67
71915;BME280;60387;49.994;14.660;2024-03-08T07:46:47;97949.66;;;10.31;45.28
71915;BME280;60387;49.994;14.660;2024-03-08T07:49:20;97941.88;;;10.43;45.08
71915;BME280;60387;49.994;14.660;2024-03-08T07:51:54;97945.41;;;10.44;43.85
71915;BME280;60387;49.994;14.660;2024-03-08T07:54:27;97936.31;;;10.53;44.54
71915;BME280;60387;49.994;14.660;2024-03-08T07:57:00;97947.28;;;10.62;44.13
71915;BME280;60387;49.994;14.660;2024-03-08T07:59:34;97932.97;;;10.75;43.44
71915;BME280;60387;49.994;14.660;2024-03-08T08:02:07;97934.72;;;10.84;43.53
71915;BME280;60387;49.994;14.660;2024-03-08T08:04:40;97937.25;;;10.94;42.25
71915;BME280;60387;49.994;14.660;2024-03-08T08:07:13;97915.53;;;10.81;42.59
71915;BME280;60387;49.994;14.660;2024-03-08T08:09:47;97939.88;;;10.99;43.19
71915;BME280;60387;49.994;14.660;2024-03-08T08:12:20;97942.88;;;11.11;41.88
71915;BME280;60387;49.994;14.660;2024-03-08T08:14:53;97933.47;;;11.22;42.21
71915;BME280;60387;49.994;14.660;2024-03-08T08:17:26;97935.59;;;11.25;41.28
71915;BME280;60387;49.994;14.660;2024-03-08T08:20:00;97933.84;;;11.16;41.10
71915;BME280;60387;49.994;14.660;2024-03-08T08:22:33;97937.34;;;11.03;41.58
71915;BME280;60387;49.994;14.660;2024-03-08T08:25:07;97942.88;;;10.98;41.50
71915;BME280;60387;49.994;14.660;2024-03-08T08:27:41;97933.59;;;10.85;40.50
71915;BME280;60387;49.994;14.660;2024-03-08T08:30:14;97931.09;;;10.89;40.63
71915;BME280;60387;49.994;14.660;2024-03-08T08:32:48;97911.13;;;10.98;41.51
71915;BME280;60387;49.994;14.660;2024-03-08T08:35:21;97915.06;;;11.06;41.13
71915;BME280;60387;49.994;14.660;2024-03-08T08:37:54;97924.00;;;11.20;41.40
71915;BME280;60387;49.994;14.660;2024-03-08T08:40:27;97917.19;;;11.36;41.14
71915;BME280;60387;49.994;14.660;2024-03-08T08:43:02;97926.22;;;11.45;39.95
71915;BME280;60387;49.994;14.660;2024-03-08T08:45:35;97920.44;;;11.65;41.07
71915;BME280;60387;49.994;14.660;2024-03-08T08:48:08;97914.19;;;11.78;40.55
71915;BME280;60387;49.994;14.660;2024-03-08T08:50:41;97918.88;;;11.99;40.43
71915;BME280;60387;49.994;14.660;2024-03-08T08:53:15;97912.28;;;12.14;39.49
71915;BME280;60387;49.994;14.660;2024-03-08T08:55:48;97905.41;;;12.30;40.05
71915;BME280;60387;49.994;14.660;2024-03-08T08:58:21;97913.81;;;12.42;38.78
71915;BME280;60387;49.994;14.660;2024-03-08T09:00:54;97900.03;;;12.60;38.99
71915;BME280;60387;49.994;14.660;2024-03-08T09:03:28;97914.94;;;12.63;38.36
71915;BME280;60387;49.994;14.660;2024-03-08T09:06:01;97914.19;;;12.71;38.81
71915;BME280;60387;49.994;14.660;2024-03-08T09:08:34;97906.03;;;12.71;37.68
71915;BME280;60387;49.994;14.660;2024-03-08T09:11:07;97906.34;;;12.69;37.80
71915;BME280;60387;49.994;14.660;2024-03-08T09:13:44;97900.22;;;12.64;39.33
71915;BME280;60387;49.994;14.660;2024-03-08T09:16:17;97900.84;;;12.61;38.93
71915;BME280;60387;49.994;14.660;2024-03-08T09:18:51;97899.50;;;12.50;39.61
71915;BME280;60387;49.994;14.660;2024-03-08T09:21:24;97906.28;;;12.61;40.07
71915;BME280;60387;49.994;14.660;2024-03-08T09:23:57;97895.91;;;12.84;40.01
71915;BME280;60387;49.994;14.660;2024-03-08T09:26:30;97893.06;;;13.20;38.52
71915;BME280;60387;49.994;14.660;2024-03-08T09:29:04;97886.94;;;13.53;39.14
71915;BME280;60387;49.994;14.660;2024-03-08T09:31:37;97881.91;;;13.86;37.97
71915;BME280;60387;49.994;14.660;2024-03-08T09:34:10;97883.22;;;14.05;37.91
71915;BME280;60387;49.994;14.660;2024-03-08T09:36:44;97878.44;;;14.19;38.32
71915;BME280;60387;49.994;14.660;2024-03-08T09:39:18;97887.44;;;14.28;38.47
71915;BME280;60387;49.994;14.660;2024-03-08T09:41:51;97887.09;;;14.21;37.15
71915;BME280;60387;49.994;14.660;2024-03-08T09:44:24;97890.94;;;14.20;38.08
71915;BME280;60387;49.994;14.660;2024-03-08T09:46:58;97885.50;;;14.20;36.75
71915;BME280;60387;49.994;14.660;2024-03-08T09:49:32;97888.88;;;14.26;37.82
71915;BME280;60387;49.994;14.660;2024-03-08T09:52:06;97886.28;;;14.21;36.74
71915;BME280;60387;49.994;14.660;2024-03-08T09:54:39;97886.56;;;13.94;37.03
71915;BME280;60387;49.994;14.660;2024-03-08T09:57:13;97875.97;;;13.84;36.97
71915;BME280;60387;49.994;14.660;2024-03-08T09:59:46;97877.84;;;13.58;37.47
71915;BME280;60387;49.994;14.660;2024-03-08T10:02:19;97879.69;;;13.40;37.99
71915;BME280;60387;49.994;14.660;2024-03-08T10:04:52;97863.53;;;13.44;38.13
71915;BME280;60387;49.994;14.660;2024-03-08T10:07:26;97867.84;;;13.36;37.74
71915;BME280;60387;49.994;14.660;2024-03-08T10:09:59;97870.22;;;13.29;38.79
71915;BME280;60387;49.994;14.660;2024-03-08T10:12:32;97866.97;;;13.19;38.98
71915;BME280;60387;49.994;14.660;2024-03-08T10:15:08;97862.66;;;13.18;38.41
71915;BME280;60387;49.994;14.660;2024-03-08T10:17:42;97856.84;;;13.11;38.23
71915;BME280;60387;49.994;14.660;2024-03-08T10:20:18;97851.69;;;13.01;38.73
71915;BME280;60387;49.994;14.660;2024-03-08T10:22:52;97854.75;;;12.99;38.79
71915;BME280;60387;49.994;14.660;2024-03-08T10:25:25;97856.97;;;12.97;39.06
71915;BME280;60387;49.994;14.660;2024-03-08T10:27:58;97854.19;;;13.19;39.45
71915;BME280;60387;49.994;14.660;2024-03-08T10:30:32;97858.53;;;13.29;39.27
71915;BME280;60387;49.994;14.660;2024-03-08T10:33:05;97854.88;;;13.33;38.61
71915;BME280;60387;49.994;14.660;2024-03-08T10:35:38;97861.56;;;13.27;38.42
71915;BME280;60387;49.994;14.660;2024-03-08T10:38:14;97856.91;;;13.19;38.75
71915;BME280;60387;49.994;14.660;2024-03-08T10:40:48;97853.72;;;13.26;38.71
71915;BME280;60387;49.994;14.660;2024-03-08T10:43:25;97852.59;;;13.27;38.82
71915;BME280;60387;49.994;14.660;2024-03-08T10:46:19;97859.03;;;13.39;38.98
71915;BME280;60387;49.994;14.660;2024-03-08T10:48:55;97846.91;;;13.45;38.66
71915;BME280;60387;49.994;14.660;2024-03-08T10:51:31;97847.19;;;13.35;38.11
71915;BME280;60387;49.994;14.660;2024-03-08T10:54:06;97849.28;;;13.38;39.12
71915;BME280;60387;49.994;14.660;2024-03-08T10:56:40;97842.41;;;13.49;38.45
71915;BME280;60387;49.994;14.660;2024-03-08T10:59:13;97839.25;;;13.64;38.93
71915;BME280;60387;49.994;14.660;2024-03-08T11:01:47;97840.25;;;13.85;37.91
71915;BME280;60387;49.994;14.660;2024-03-08T11:04:20;97835.31;;;14.04;38.53
71915;BME280;60387;49.994;14.660;2024-03-08T11:07:00;97829.22;;;14.16;37.12
71915;BME280;60387;49.994;14.660;2024-03-08T11:09:37;97830.00;;;14.16;37.91
71915;BME280;60387;49.994;14.660;2024-03-08T11:12:29;97827.78;;;14.18;37.72
71915;BME280;60387;49.994;14.660;2024-03-08T11:15:10;97826.16;;;14.00;37.22
71915;BME280;60387;49.994;14.660;2024-03-08T11:17:50;97810.31;;;13.94;38.21
71915;BME280;60387;49.994;14.660;2024-03-08T11:20:23;97806.94;;;14.05;38.14
71915;BME280;60387;49.994;14.660;2024-03-08T11:23:02;97798.47;;;14.24;37.61
71915;BME280;60387;49.994;14.660;2024-03-08T11:25:38;97805.50;;;14.42;36.74
71915;BME280;60387;49.994;14.660;2024-03-08T11:28:20;97789.78;;;14.39;36.82
71915;BME280;60387;49.994;14.660;2024-03-08T11:33:35;97793.53;;;14.80;37.26
71915;BME280;60387;49.994;14.660;2024-03-08T11:36:13;97801.19;;;14.87;36.84
71915;BME280;60387;49.994;14.660;2024-03-08T11:38:52;97795.94;;;14.73;36.85
71915;BME280;60387;49.994;14.660;2024-03-08T11:41:26;97801.44;;;14.56;36.24
71915;BME280;60387;49.994;14.660;2024-03-08T11:44:05;97790.25;;;14.15;36.77
71915;BME280;60387;49.994;14.660;2024-03-08T11:46:39;97794.59;;;13.99;36.94
71915;BME280;60387;49.994;14.660;2024-03-08T11:49:12;97800.06;;;13.74;37.33
71915;BME280;60387;49.994;14.660;2024-03-08T11:51:46;97784.97;;;13.42;37.93
71915;BME280;60387;49.994;14.660;2024-03-08T11:54:19;97783.63;;;13.23;38.58
71915;BME280;60387;49.994;14.660;2024-03-08T11:56:53;97794.94;;;12.99;38.85
71915;BME280;60387;49.994;14.660;2024-03-08T11:59:29;97787.09;;;12.68;39.59
71915;BME280;60387;49.994;14.660;2024-03-08T12:02:04;97784.03;;;12.69;39.56
71915;BME280;60387;49.994;14.660;2024-03-08T12:04:37;97783.59;;;12.76;39.89
71915;BME280;60387;49.994;14.660;2024-03-08T12:07:11;97769.72;;;12.85;39.79
71915;BME280;60387;49.994;14.660;2024-03-08T12:09:44;97771.94;;;13.14;39.87
71915;BME280;60387;49.994;14.660;2024-03-08T12:12:39;97775.69;;;13.69;39.47
71915;BME280;60387;49.994;14.660;2024-03-08T12:15:13;97770.56;;;13.93;38.14
71915;BME280;60387;49.994;14.660;2024-03-08T12:17:48;97758.22;;;14.04;37.96
71915;BME280;60387;49.994;14.660;2024-03-08T12:20:23;97761.41;;;14.14;37.86
71915;BME280;60387;49.994;14.660;2024-03-08T12:22:58;97771.50;;;14.31;37.24
71915;BME280;60387;49.994;14.660;2024-03-08T12:25:32;97751.63;;;14.39;37.09
71915;BME280;60387;49.994;14.660;2024-03-08T12:28:10;97748.53;;;14.57;37.42
71915;BME280;60387;49.994;14.660;2024-03-08T12:30:48;97735.44;;;14.80;37.69
71915;BME280;60387;49.994;14.660;2024-03-08T12:33:22;97751.50;;;15.10;36.22
71915;BME280;60387;49.994;14.660;2024-03-08T12:35:55;97739.03;;;15.30;36.73
71915;BME280;60387;49.994;14.660;2024-03-08T12:38:28;97746.69;;;15.45;35.84
71915;BME280;60387;49.994;14.660;2024-03-08T12:41:02;97749.19;;;15.50;35.33
71915;BME280;60387;49.994;14.660;2024-03-08T12:43:35;97750.94;;;15.34;35.36
71915;BME280;60387;49.994;14.660;2024-03-08T12:46:08;97744.81;;;15.28;35.74
71915;BME280;60387;49.994;14.660;2024-03-08T12:48:43;97734.56;;;15.25;36.15
71915;BME280;60387;49.994;14.660;2024-03-08T12:51:17;97740.19;;;15.20;36.07
71915;BME280;60387;49.994;14.660;2024-03-08T12:53:50;97737.81;;;15.19;35.68
71915;BME280;60387;49.994;14.660;2024-03-08T12:56:33;97732.53;;;15.14;36.43
71915;BME280;60387;49.994;14.660;2024-03-08T12:59:08;97732.22;;;15.15;36.23
71915;BME280;60387;49.994;14.660;2024-03-08T13:01:41;97733.53;;;15.09;35.98
71915;BME280;60387;49.994;14.660;2024-03-08T13:04:14;97721.88;;;15.00;36.34
71915;BME280;60387;49.994;14.660;2024-03-08T13:06:48;97728.06;;;14.80;36.08
71915;BME280;60387;49.994;14.660;2024-03-08T13:09:21;97722.56;;;14.51;36.61
71915;BME280;60387;49.994;14.660;2024-03-08T13:11:54;97717.59;;;14.53;37.20
71915;BME280;60387;49.994;14.660;2024-03-08T13:14:28;97716.19;;;14.47;37.26
71915;BME280;60387;49.994;14.660;2024-03-08T13:17:01;97718.25;;;14.50;37.41
71915;BME280;60387;49.994;14.660;2024-03-08T13:19:34;97712.97;;;14.45;36.83
71915;BME280;60387;49.994;14.660;2024-03-08T13:22:08;97714.63;;;14.29;37.21
71915;BME280;60387;49.994;14.660;2024-03-08T13:24:42;97706.63;;;14.24;37.44
71915;BME280;60387;49.994;14.660;2024-03-08T13:27:15;97709.34;;;14.07;37.24
71915;BME280;60387;49.994;14.660;2024-03-08T13:29:48;97719.16;;;14.00;37.31
71915;BME280;60387;49.994;14.660;2024-03-08T13:32:22;97706.19;;;13.88;37.79